createdAt,value
2019-05-29T00:01:09.040Z,101670.91
2019-05-29T00:03:52.102Z,101675.81
2019-05-29T00:06:39.449Z,101685.08
2019-05-29T00:09:26.735Z,101681.16
2019-05-29T00:12:18.398Z,101683.45
2019-05-29T00:15:01.052Z,101686.19
2019-05-29T00:17:49.107Z,101684.00
2019-05-29T00:20:36.848Z,101691.57
2019-05-29T00:23:24.107Z,101690.22
2019-05-29T00:26:12.482Z,101689.84
2019-05-29T00:28:59.550Z,101691.67
2019-05-29T00:31:47.172Z,101700.19
2019-05-29T00:34:34.631Z,101703.81
2019-05-29T00:37:22.040Z,101698.91
2019-05-29T00:40:09.350Z,101703.42
2019-05-29T00:42:57.150Z,101707.88
2019-05-29T00:45:44.499Z,101711.47
2019-05-29T00:48:31.962Z,101710.79
2019-05-29T00:51:20.054Z,101718.34
2019-05-29T00:54:08.209Z,101717.94
2019-05-29T00:56:54.719Z,101720.28
2019-05-29T00:59:42.740Z,101722.09
2019-05-29T01:02:29.879Z,101732.27
2019-05-29T01:05:18.174Z,101735.47
2019-05-29T01:08:05.299Z,101742.18
2019-05-29T01:10:53.482Z,101744.52
2019-05-29T01:13:40.846Z,101750.66
2019-05-29T01:16:27.918Z,101751.34
2019-05-29T01:19:26.882Z,101752.30
2019-05-29T01:22:14.362Z,101760.30
2019-05-29T01:25:02.214Z,101754.71
2019-05-29T01:27:49.966Z,101761.44
2019-05-29T01:30:37.126Z,101765.49
2019-05-29T01:33:25.050Z,101773.09
2019-05-29T01:36:12.019Z,101773.64
2019-05-29T01:38:59.252Z,101773.31
2019-05-29T01:41:46.823Z,101780.46
2019-05-29T01:44:34.341Z,101777.14
2019-05-29T01:47:21.918Z,101780.86
2019-05-29T01:50:09.947Z,101786.71
2019-05-29T01:52:57.900Z,101797.38
2019-05-29T01:55:45.066Z,101800.52
2019-05-29T01:58:32.497Z,101800.59
2019-05-29T02:01:20.248Z,101809.10
2019-05-29T02:04:08.118Z,101812.31
2019-05-29T02:06:55.522Z,101812.87
2019-05-29T02:09:43.072Z,101815.16
2019-05-29T02:12:31.103Z,101812.55
2019-05-29T02:15:27.038Z,101821.05
2019-05-29T02:18:06.193Z,101815.81
2019-05-29T02:20:54.206Z,101821.61
2019-05-29T02:23:42.182Z,101822.52
2019-05-29T02:26:29.670Z,101829.23
2019-05-29T02:29:18.463Z,101827.04
2019-05-29T02:32:05.351Z,101840.76
2019-05-29T02:34:52.623Z,101830.42
2019-05-29T02:37:40.556Z,101836.66
2019-05-29T02:40:30.118Z,101836.66
2019-05-29T02:43:16.128Z,101845.58
2019-05-29T02:46:04.029Z,101842.94
2019-05-29T02:48:51.617Z,101842.94
2019-05-29T02:51:39.691Z,101850.08
2019-05-29T02:54:27.712Z,101848.02
2019-05-29T02:57:14.340Z,101848.02
2019-05-29T03:00:02.077Z,101859.11
2019-05-29T03:02:50.065Z,101859.11
2019-05-29T03:05:38.020Z,101864.38
2019-05-29T03:08:27.087Z,101877.16
2019-05-29T03:11:13.124Z,101881.98
2019-05-29T03:14:00.493Z,101881.98
2019-05-29T03:16:47.827Z,101874.14
2019-05-29T03:19:35.705Z,101884.28
2019-05-29T03:22:24.109Z,101881.26
2019-05-29T03:25:10.960Z,101889.17
2019-05-29T03:27:58.192Z,101889.17
2019-05-29T03:30:46.651Z,101904.89
2019-05-29T03:33:40.878Z,101908.84
2019-05-29T03:36:21.681Z,101913.22
2019-05-29T03:39:09.442Z,101917.59
2019-05-29T03:41:56.942Z,101929.02
2019-05-29T03:44:44.271Z,101926.75
2019-05-29T03:47:33.198Z,101924.11
2019-05-29T03:50:19.482Z,101927.59
2019-05-29T03:53:06.795Z,101926.30
2019-05-29T03:55:54.322Z,101928.03
2019-05-29T03:58:41.881Z,101928.03
2019-05-29T04:01:31.291Z,101936.73
2019-05-29T04:04:17.425Z,101936.73
2019-05-29T04:07:04.627Z,101953.33
2019-05-29T04:09:52.505Z,101953.25
2019-05-29T04:12:39.842Z,101959.33
2019-05-29T04:15:27.580Z,101960.97
2019-05-29T04:18:14.487Z,101960.97
2019-05-29T04:21:02.585Z,101964.89
2019-05-29T04:23:50.171Z,101967.90
2019-05-29T04:26:40.723Z,101972.23
2019-05-29T04:29:29.848Z,101977.47
2019-05-29T04:32:15.392Z,101985.39
2019-05-29T04:35:02.817Z,101994.97
2019-05-29T04:37:50.679Z,101996.61
2019-05-29T04:40:39.564Z,101996.61
2019-05-29T04:43:25.822Z,102011.05
2019-05-29T04:46:13.477Z,102008.39
2019-05-29T04:49:00.782Z,101994.73
2019-05-29T04:51:48.630Z,102000.33
2019-05-29T04:54:37.427Z,102014.22
2019-05-29T04:57:23.303Z,102017.27
2019-05-29T05:00:10.522Z,102027.75
2019-05-29T05:02:58.492Z,102026.37
2019-05-29T05:05:46.538Z,102026.22
2019-05-29T05:08:33.753Z,102031.27
2019-05-29T05:11:20.846Z,102035.98
2019-05-29T05:14:08.258Z,102034.44
2019-05-29T05:16:55.620Z,102033.52
2019-05-29T05:19:43.139Z,102035.54
2019-05-29T05:22:30.275Z,102033.16
2019-05-29T05:25:18.358Z,102032.06
2019-05-29T05:28:06.176Z,102043.84
2019-05-29T05:30:53.448Z,102043.31
2019-05-29T05:33:41.342Z,102046.59
2019-05-29T05:36:28.762Z,102049.04
2019-05-29T05:39:16.393Z,102047.56
2019-05-29T05:42:03.692Z,102053.67
2019-05-29T05:44:51.194Z,102055.27
2019-05-29T05:47:50.078Z,102057.11
2019-05-29T05:50:26.618Z,102059.70
2019-05-29T05:53:14.524Z,102071.30
2019-05-29T05:56:01.986Z,102074.61
2019-05-29T05:58:49.350Z,102075.62
2019-05-29T06:01:37.836Z,102079.85
2019-05-29T06:04:24.262Z,102088.92
2019-05-29T06:07:12.388Z,102088.69
2019-05-29T06:09:59.896Z,102092.75
2019-05-29T06:12:47.771Z,101906.18
2019-05-29T06:15:36.500Z,102097.58
2019-05-29T06:18:23.276Z,102104.78
2019-05-29T06:21:10.636Z,102105.45
2019-05-29T06:23:58.495Z,102104.98
2019-05-29T06:26:45.864Z,102100.31
2019-05-29T06:29:33.537Z,102099.72
2019-05-29T06:32:20.858Z,102106.10
2019-05-29T06:35:08.367Z,102109.89
2019-05-29T06:37:56.040Z,102114.36
2019-05-29T06:40:44.034Z,102115.88
2019-05-29T06:43:31.513Z,102126.22
2019-05-29T06:46:18.869Z,102122.67
2019-05-29T06:49:06.660Z,102129.30
2019-05-29T06:51:53.865Z,102126.98
2019-05-29T06:54:42.077Z,102129.37
2019-05-29T06:57:28.919Z,102133.61
2019-05-29T07:00:33.963Z,102133.48
2019-05-29T07:03:04.116Z,102136.14
2019-05-29T07:05:52.932Z,102137.63
2019-05-29T07:08:44.475Z,102140.83
2019-05-29T07:11:26.604Z,102148.23
2019-05-29T07:14:14.508Z,102149.33
2019-05-29T07:17:01.732Z,102149.62
2019-05-29T07:20:02.324Z,102154.50
2019-05-29T07:22:36.985Z,102153.89
2019-05-29T07:25:23.420Z,102154.52
2019-05-29T07:28:10.920Z,102158.72
2019-05-29T07:31:02.781Z,102152.92
2019-05-29T07:33:45.776Z,102167.16
2019-05-29T07:36:33.712Z,102172.73
2019-05-29T07:39:21.475Z,102172.97
2019-05-29T07:42:08.784Z,102176.27
2019-05-29T07:44:56.749Z,102187.18
2019-05-29T07:47:44.828Z,102188.90
2019-05-29T07:50:32.030Z,102188.18
2019-05-29T07:53:19.262Z,102192.41
2019-05-29T07:56:21.550Z,102189.10
2019-05-29T07:59:02.501Z,102188.16
2019-05-29T08:01:42.787Z,102187.19
2019-05-29T08:04:29.392Z,102186.09
2019-05-29T08:07:17.217Z,102198.26
2019-05-29T08:10:05.461Z,102189.53
2019-05-29T08:12:55.461Z,102197.45
2019-05-29T08:15:53.945Z,102201.92
2019-05-29T08:18:28.947Z,102200.56
2019-05-29T08:21:16.371Z,102203.81
2019-05-29T08:24:04.324Z,102213.84
2019-05-29T08:26:51.757Z,102208.67
2019-05-29T08:29:40.509Z,102213.95
2019-05-29T08:32:26.454Z,102205.50
2019-05-29T08:35:14.332Z,102205.95
2019-05-29T08:38:01.476Z,102210.48
2019-05-29T08:40:49.528Z,102219.83
2019-05-29T08:43:36.919Z,102217.61
2019-05-29T08:46:24.241Z,102223.13
2019-05-29T08:49:11.642Z,102227.48
2019-05-29T08:52:11.287Z,102227.11
2019-05-29T08:54:46.658Z,102229.63
2019-05-29T08:57:33.807Z,102223.07
2019-05-29T09:00:21.872Z,102221.90
2019-05-29T09:03:09.298Z,102222.84
2019-05-29T09:06:08.363Z,102229.77
2019-05-29T09:08:46.190Z,102230.40
2019-05-29T09:11:31.590Z,102230.62
2019-05-29T09:14:18.978Z,102233.37
2019-05-29T09:17:06.806Z,102245.18
2019-05-29T09:19:54.773Z,102240.88
2019-05-29T09:22:42.443Z,102242.47
2019-05-29T09:25:30.383Z,102241.44
2019-05-29T09:28:19.974Z,102238.44
2019-05-29T09:31:04.660Z,102234.14
2019-05-29T09:33:52.563Z,102236.06
2019-05-29T09:36:40.011Z,102235.60
2019-05-29T09:39:27.734Z,102231.41
2019-05-29T09:42:17.402Z,102239.50
2019-05-29T09:45:03.156Z,102231.23
2019-05-29T09:47:50.492Z,102240.19
2019-05-29T09:50:49.438Z,102248.53
2019-05-29T09:53:25.143Z,102254.75
2019-05-29T09:56:12.454Z,102257.91
2019-05-29T09:59:01.671Z,102254.80
2019-05-29T10:01:47.952Z,102251.91
2019-05-29T10:04:35.508Z,102249.97
2019-05-29T10:07:22.791Z,102254.05
2019-05-29T10:10:10.144Z,102255.84
2019-05-29T10:12:58.127Z,102254.70
2019-05-29T10:15:45.372Z,102255.88
2019-05-29T10:18:33.145Z,102252.84
2019-05-29T10:21:38.161Z,102259.55
2019-05-29T10:24:08.103Z,102263.77
2019-05-29T10:26:57.485Z,102257.28
2019-05-29T10:29:44.492Z,102264.55
2019-05-29T10:32:30.854Z,102259.19
2019-05-29T10:35:18.298Z,102267.05
2019-05-29T10:38:06.253Z,102269.11
2019-05-29T10:41:05.573Z,102266.01
2019-05-29T10:43:41.248Z,102270.00
2019-05-29T10:46:28.657Z,102275.55
2019-05-29T10:49:16.149Z,102269.09
2019-05-29T10:52:16.027Z,102269.91
2019-05-29T10:54:54.357Z,102279.19
2019-05-29T10:57:40.669Z,102268.22
2019-05-29T11:00:28.019Z,102266.03
2019-05-29T11:03:15.689Z,102265.77
2019-05-29T11:06:03.174Z,102268.25
2019-05-29T11:08:50.498Z,102268.55
2019-05-29T11:11:37.950Z,102266.61
2019-05-29T11:14:25.400Z,102274.66
2019-05-29T11:17:12.980Z,102277.69
2019-05-29T11:20:00.624Z,102277.31
2019-05-29T11:22:47.951Z,102272.92
2019-05-29T11:25:35.617Z,102271.95
2019-05-29T11:28:22.980Z,102274.27
2019-05-29T11:31:10.689Z,102276.06
2019-05-29T11:33:59.231Z,102278.79
2019-05-29T11:36:45.920Z,102274.07
2019-05-29T11:39:33.355Z,102273.93
2019-05-29T11:42:27.195Z,102276.08
2019-05-29T11:45:09.519Z,102281.73
2019-05-29T11:47:58.962Z,102276.31
2019-05-29T11:50:44.452Z,102279.23
2019-05-29T11:53:31.905Z,102265.95
2019-05-29T11:56:19.409Z,102271.45
2019-05-29T11:59:07.253Z,102269.17
2019-05-29T12:01:56.848Z,102273.43
2019-05-29T12:04:42.664Z,102277.91
2019-05-29T12:07:30.097Z,102267.29
2019-05-29T12:10:17.691Z,102265.08
2019-05-29T12:13:05.163Z,102262.91
2019-05-29T12:15:53.520Z,102263.30
2019-05-29T12:18:39.898Z,102258.01
2019-05-29T12:21:27.186Z,102257.81
2019-05-29T12:24:15.239Z,102265.17
2019-05-29T12:27:02.796Z,102250.73
2019-05-29T12:29:50.035Z,102259.73
2019-05-29T12:32:37.135Z,102251.23
2019-05-29T12:35:25.042Z,102256.17
2019-05-29T12:38:12.523Z,102250.63
2019-05-29T12:41:01.663Z,102248.44
2019-05-29T12:43:47.647Z,102246.10
2019-05-29T12:46:35.447Z,102247.37
2019-05-29T12:49:22.937Z,102239.24
2019-05-29T12:52:10.426Z,102236.57
2019-05-29T12:54:58.038Z,102235.97
2019-05-29T12:57:45.363Z,102238.05
2019-05-29T13:00:33.009Z,102241.36
2019-05-29T13:03:20.461Z,102228.98
2019-05-29T13:06:07.671Z,102234.95
2019-05-29T13:08:56.318Z,102236.06
2019-05-29T13:11:42.630Z,102231.10
2019-05-29T13:14:30.637Z,102237.69
2019-05-29T13:17:18.896Z,102239.98
2019-05-29T13:20:20.131Z,102243.55
2019-05-29T13:22:55.500Z,102244.57
2019-05-29T13:25:41.771Z,102241.05
2019-05-29T13:28:29.307Z,102240.16
2019-05-29T13:31:16.853Z,102240.98
2019-05-29T13:34:04.464Z,102243.03
2019-05-29T13:36:52.165Z,102240.75
2019-05-29T13:39:39.388Z,102237.55
2019-05-29T13:42:26.978Z,102238.16
2019-05-29T13:45:18.195Z,102247.14
2019-05-29T13:48:03.252Z,102232.38
2019-05-29T13:50:50.322Z,102237.00
2019-05-29T13:53:37.463Z,102232.72
2019-05-29T13:56:25.060Z,102237.52
2019-05-29T13:59:12.303Z,102236.30
2019-05-29T14:02:00.425Z,102238.72
2019-05-29T14:04:47.857Z,102240.78
2019-05-29T14:07:35.260Z,102245.03
2019-05-29T14:10:22.669Z,102244.44
2019-05-29T14:13:09.997Z,102245.12
2019-05-29T14:15:57.623Z,102240.52
2019-05-29T14:18:45.031Z,102242.61
2019-05-29T14:21:32.537Z,102238.03
2019-05-29T14:24:29.131Z,102245.59
2019-05-29T14:27:07.539Z,102242.24
2019-05-29T14:29:54.658Z,102246.86
2019-05-29T14:32:42.279Z,102245.25
2019-05-29T14:35:30.414Z,102240.64
2019-05-29T14:38:18.112Z,102235.56
2019-05-29T14:41:05.767Z,102237.31
2019-05-29T14:43:52.870Z,102234.75
2019-05-29T14:46:40.813Z,102234.34
2019-05-29T14:49:28.183Z,102223.14
2019-05-29T14:52:15.381Z,102225.81
2019-05-29T14:55:02.948Z,102225.16
2019-05-29T14:57:50.308Z,102221.88
2019-05-29T15:00:38.323Z,102227.32
2019-05-29T15:03:26.308Z,102231.62
2019-05-29T15:06:14.417Z,102234.47
2019-05-29T15:09:03.515Z,102234.35
2019-05-29T15:11:49.713Z,102240.14
2019-05-29T15:14:37.659Z,102244.49
2019-05-29T15:17:25.278Z,102239.72
2019-05-29T15:20:16.178Z,102239.17
2019-05-29T15:23:00.829Z,102235.59
2019-05-29T15:25:48.280Z,102234.34
2019-05-29T15:28:36.342Z,102242.27
2019-05-29T15:31:24.344Z,102242.63
2019-05-29T15:34:12.422Z,102239.30
2019-05-29T15:36:59.248Z,102242.26
2019-05-29T15:39:46.756Z,102252.08
2019-05-29T15:42:34.244Z,102246.48
2019-05-29T15:45:22.153Z,102248.48
2019-05-29T15:48:11.033Z,102250.70
2019-05-29T15:50:57.586Z,102256.75
2019-05-29T15:53:45.612Z,102250.02
2019-05-29T15:56:33.280Z,102251.15
2019-05-29T15:59:21.413Z,102247.02
2019-05-29T16:02:09.462Z,102248.97
2019-05-29T16:04:57.344Z,102249.34
2019-05-29T16:07:44.793Z,102248.69
2019-05-29T16:10:32.926Z,102249.28
2019-05-29T16:13:20.345Z,102244.92
2019-05-29T16:16:09.427Z,102238.60
2019-05-29T16:18:56.387Z,102240.81
2019-05-29T16:21:43.991Z,102238.49
2019-05-29T16:24:31.186Z,102232.02
2019-05-29T16:27:18.663Z,102236.52
2019-05-29T16:30:06.066Z,102240.48
2019-05-29T16:32:53.493Z,102232.24
2019-05-29T16:35:41.488Z,102228.55
2019-05-29T16:38:28.982Z,102239.70
2019-05-29T16:41:17.926Z,102233.84
2019-05-29T16:44:04.572Z,102229.25
2019-05-29T16:46:51.881Z,102218.22
2019-05-29T16:49:39.600Z,102229.08
2019-05-29T16:52:27.399Z,102235.39
2019-05-29T16:55:15.440Z,102221.66
2019-05-29T16:58:03.035Z,102227.48
2019-05-29T17:00:51.018Z,102227.72
2019-05-29T17:03:38.481Z,102228.02
2019-05-29T17:06:25.898Z,102240.27
2019-05-29T17:09:14.541Z,102236.28
2019-05-29T17:12:02.054Z,102232.66
2019-05-29T17:14:49.552Z,102229.71
2019-05-29T17:17:36.855Z,102234.48
2019-05-29T17:20:40.410Z,102238.07
2019-05-29T17:23:28.364Z,102233.39
2019-05-29T17:26:16.713Z,102231.41
2019-05-29T17:29:03.677Z,102229.69
2019-05-29T17:31:51.685Z,102236.84
2019-05-29T17:34:39.192Z,102247.23
2019-05-29T17:37:26.720Z,102243.41
2019-05-29T17:40:14.932Z,102246.72
2019-05-29T17:43:02.384Z,102247.08
2019-05-29T17:45:50.499Z,102243.00
2019-05-29T17:48:38.025Z,102248.38
2019-05-29T17:51:26.035Z,102248.13
2019-05-29T17:54:13.246Z,102241.08
2019-05-29T17:57:00.605Z,102243.75
2019-05-29T17:59:47.695Z,102241.21
2019-05-29T18:02:50.822Z,102242.33
2019-05-29T18:05:23.091Z,102239.63
2019-05-29T18:08:10.687Z,102240.52
2019-05-29T18:10:58.199Z,102235.03
2019-05-29T18:13:45.994Z,102239.23
2019-05-29T18:16:33.771Z,102241.47
2019-05-29T18:19:21.735Z,102240.39
2019-05-29T18:22:10.891Z,102237.34
2019-05-29T18:24:58.179Z,102246.13
2019-05-29T18:27:48.305Z,102235.88
2019-05-29T18:30:35.596Z,102235.61
2019-05-29T18:33:22.950Z,102231.89
2019-05-29T18:36:10.441Z,102235.91
2019-05-29T18:38:58.198Z,102237.92
2019-05-29T18:41:45.749Z,102239.09
2019-05-29T18:44:33.435Z,102241.11
2019-05-29T18:47:21.130Z,102237.80
2019-05-29T18:50:08.495Z,102244.45
2019-05-29T18:52:56.354Z,102249.57
2019-05-29T18:55:43.888Z,102245.39
2019-05-29T18:58:32.349Z,102253.34
2019-05-29T19:01:18.988Z,102245.75
2019-05-29T19:04:06.921Z,102253.16
2019-05-29T19:06:54.178Z,102257.77
2019-05-29T19:09:41.858Z,102257.17
2019-05-29T19:12:30.061Z,102255.70
2019-05-29T19:15:17.492Z,102265.17
2019-05-29T19:18:05.468Z,102262.55
2019-05-29T19:20:52.923Z,102267.07
2019-05-29T19:23:40.338Z,102268.22
2019-05-29T19:26:28.770Z,102278.43
2019-05-29T19:29:15.553Z,102273.70
2019-05-29T19:32:03.034Z,102283.70
2019-05-29T19:34:50.536Z,102296.26
2019-05-29T19:37:37.813Z,102296.61
2019-05-29T19:40:26.028Z,102300.41
2019-05-29T19:43:12.625Z,102292.55
2019-05-29T19:45:59.943Z,102309.56
2019-05-29T19:48:47.788Z,102297.18
2019-05-29T19:51:35.430Z,102302.95
2019-05-29T19:54:22.922Z,102301.58
2019-05-29T19:57:11.010Z,102300.16
2019-05-29T19:59:58.469Z,102306.77
2019-05-29T20:02:46.053Z,102301.37
2019-05-29T20:05:33.311Z,102310.55
2019-05-29T20:08:21.063Z,102310.80
2019-05-29T20:11:08.423Z,102311.94
2019-05-29T20:13:55.780Z,102315.27
2019-05-29T20:16:43.204Z,102312.31
2019-05-29T20:19:35.542Z,102309.72
2019-05-29T20:22:18.499Z,102305.59
2019-05-29T20:25:06.636Z,102315.84
2019-05-29T20:28:05.945Z,102323.44
2019-05-29T20:30:42.544Z,102327.52
2019-05-29T20:33:28.866Z,102323.44
2019-05-29T20:36:16.813Z,102316.30
2019-05-29T20:39:06.370Z,102314.86
2019-05-29T20:41:53.873Z,102316.48
2019-05-29T20:44:42.956Z,102319.49
2019-05-29T20:47:28.637Z,102322.09
2019-05-29T20:50:16.282Z,102320.16
2019-05-29T20:53:04.381Z,102315.03
2019-05-29T20:55:52.268Z,102313.02
2019-05-29T20:58:40.119Z,102320.31
2019-05-29T21:01:28.177Z,102321.80
2019-05-29T21:04:15.630Z,102325.54
2019-05-29T21:07:03.556Z,102331.36
2019-05-29T21:09:50.971Z,102333.69
2019-05-29T21:12:42.485Z,102333.38
2019-05-29T21:15:26.549Z,102333.94
2019-05-29T21:18:14.451Z,102334.95
2019-05-29T21:21:02.138Z,102333.72
2019-05-29T21:23:49.537Z,102340.10
2019-05-29T21:26:37.083Z,102344.59
2019-05-29T21:29:24.344Z,102351.75
2019-05-29T21:32:11.897Z,102344.31
2019-05-29T21:34:59.411Z,102345.25
2019-05-29T21:37:46.784Z,102355.48
2019-05-29T21:40:34.118Z,102357.80
2019-05-29T21:43:22.213Z,102353.42
2019-05-29T21:46:09.590Z,102355.70
2019-05-29T21:48:57.181Z,102347.86
2019-05-29T21:51:45.768Z,102347.92
2019-05-29T21:54:32.409Z,102348.81
2019-05-29T21:57:20.345Z,102344.41
2019-05-29T22:00:08.488Z,102344.44
2019-05-29T22:02:55.711Z,102343.56
2019-05-29T22:05:43.032Z,102337.91
2019-05-29T22:08:30.990Z,102345.89
2019-05-29T22:11:18.527Z,102345.09
2019-05-29T22:14:06.663Z,102341.99
2019-05-29T22:16:54.976Z,102337.19
2019-05-29T22:19:41.416Z,102337.20
2019-05-29T22:22:28.737Z,102334.16
2019-05-29T22:25:16.065Z,102335.48
2019-05-29T22:28:03.566Z,102337.28
2019-05-29T22:30:51.273Z,102339.08
2019-05-29T22:33:39.017Z,102337.30
2019-05-29T22:36:26.463Z,102342.13
2019-05-29T22:39:14.205Z,102336.88
2019-05-29T22:42:02.091Z,102338.67
2019-05-29T22:44:49.301Z,102336.95
2019-05-29T22:47:36.833Z,102340.95
2019-05-29T22:50:24.779Z,102336.68
2019-05-29T22:53:12.453Z,102334.52
2019-05-29T22:56:00.083Z,102330.66
2019-05-29T22:58:47.614Z,102327.61
2019-05-29T23:01:34.867Z,102323.30
2019-05-29T23:04:22.841Z,102324.74
2019-05-29T23:07:10.861Z,102326.60
2019-05-29T23:09:58.773Z,102324.86
2019-05-29T23:12:46.637Z,102329.70
2019-05-29T23:15:33.792Z,102324.33
2019-05-29T23:18:20.912Z,102322.48
2019-05-29T23:21:08.805Z,102320.69
2019-05-29T23:23:57.451Z,102317.97
2019-05-29T23:26:43.424Z,102318.37
2019-05-29T23:29:45.764Z,102309.54
2019-05-29T23:32:18.815Z,102308.70
2019-05-29T23:35:06.290Z,102309.20
2019-05-29T23:37:53.693Z,102315.87
2019-05-29T23:40:41.092Z,102305.76
2019-05-29T23:43:28.725Z,102303.58
2019-05-29T23:46:16.411Z,102305.85
2019-05-29T23:49:04.394Z,102298.85
2019-05-29T23:51:51.656Z,102300.20
2019-05-29T23:54:38.981Z,102301.59
2019-05-29T23:57:26.471Z,102305.58
